Aérodrome :
LOGIN :

S'inscrire | Disclaimer

   EN    FR    IT 

 










Légende :    VFR   VFR Marginal   IFR   IFR Intensif   IFR Très Intensif
Visi : 
Plafond : 
>= 8 km
>= 3000ft
5 à 8 km
1000 à 3000 ft
1500m à 5 km
500 à 1000 ft
800 à 1500m
200 à 500 ft
< 800m
< 200 ft
Symboles :   Orages  Brouillard  Fortes neiges  Fortes précipitations  Vent > 20 kt
SIGMETs :   Divers  Orages  Givrage  Turbulence  Onde Orograph.  Cendres Volcan.







- Altitude de l'aérodrome : 1043 ft
- Code IATA : SLD


LZSL - Sliac

DERNIER METAR :
  • 191600Z 01010KT 9999 FEW050CB SCT058 OVC100 22/14 Q1016

METARs EXPIRÉS :
  • 191530Z 36009KT 9999 SCT058 BKN100 23/14 Q1016
  • 191500Z 06009KT 030V100 9999 SCT058 25/14 Q1015
  • 191430Z 35010KT 250V020 9999 FEW052CB SCT058 27/14 Q1015
  • 191400Z 20010KT 160V240 9999 FEW050CB SCT056 28/12 Q1015
  • 191330Z 20008KT 160V250 9999 SCT055 28/12 Q1015

TAF TAF LZSL
Valide du 19 à 15h jusqu'au 20 à 00h UTC


191400Z 1915/2000 21006KT 9999 FEW050 SCT090
TEMPO 1915/1917 17010G20KT SHRA FEW045CB SCT050
BECMG 1917/1919 34005KT
Pas de NOTAMs connus pour ce terrain.



MET'MAP, la Météo Aéronautique d'un coup d'oeil ! - Copyright ORBIFLY Décembre 2007 - Disclaimer

ORBIFLY MET'MAP TEAM :

Programmation & Développement : Alexandra Zaïnal
Conception & Développement : Baudouin d'Aumeries
Co-Programmation & Développement : Marc-Olivier Méhu
Soutien technique & logistique : Manuel Goepfert

Contact : metmap@orbifly.com




SOURCES & CREDITS :

   NOAA